createdAt,value
2018-01-26T00:00:10.598Z,89.86
2018-01-26T00:01:10.559Z,89.86
2018-01-26T00:02:10.552Z,90.14
2018-01-26T00:03:10.544Z,90.80
2018-01-26T00:04:10.547Z,90.90
2018-01-26T00:05:10.536Z,90.14
2018-01-26T00:06:10.526Z,90.14
2018-01-26T00:07:10.522Z,90.71
2018-01-26T00:08:10.808Z,90.80
2018-01-26T00:09:10.512Z,90.05
2018-01-26T00:10:10.509Z,90.80
2018-01-26T00:11:10.504Z,90.80
2018-01-26T00:12:10.491Z,90.42
2018-01-26T00:13:10.491Z,90.33
2018-01-26T00:14:10.488Z,90.52
2018-01-26T00:15:10.479Z,90.33
2018-01-26T00:16:10.497Z,90.61
2018-01-26T00:17:10.468Z,89.95
2018-01-26T00:18:10.459Z,89.95
2018-01-26T00:19:10.455Z,89.76
2018-01-26T00:20:10.456Z,89.67
2018-01-26T00:21:10.449Z,89.86
2018-01-26T00:22:10.440Z,89.95
2018-01-26T00:23:10.435Z,89.67
2018-01-26T00:24:10.867Z,89.76
2018-01-26T00:25:10.421Z,89.95
2018-01-26T00:26:10.419Z,89.86
2018-01-26T00:27:10.414Z,89.86
2018-01-26T00:28:10.403Z,89.19
2018-01-26T00:29:10.396Z,89.57
2018-01-26T00:30:10.404Z,89.57
2018-01-26T00:31:10.389Z,89.67
2018-01-26T00:32:10.397Z,89.57
2018-01-26T00:33:10.375Z,90.14
2018-01-26T00:34:10.364Z,89.95
2018-01-26T00:35:10.358Z,89.67
2018-01-26T00:36:10.363Z,89.95
2018-01-26T00:37:10.351Z,89.95
2018-01-26T00:38:10.343Z,89.76
2018-01-26T00:39:10.342Z,90.14
2018-01-26T00:40:10.807Z,89.95
2018-01-26T00:41:10.331Z,89.76
2018-01-26T00:42:10.329Z,89.76
2018-01-26T00:43:10.318Z,89.76
2018-01-26T00:44:10.312Z,89.95
2018-01-26T00:45:10.302Z,90.14
2018-01-26T00:46:10.303Z,90.05
2018-01-26T00:47:10.295Z,90.14
2018-01-26T00:48:10.301Z,90.61
2018-01-26T00:49:10.283Z,90.52
2018-01-26T00:50:10.271Z,90.33
2018-01-26T00:51:10.269Z,89.95
2018-01-26T00:52:10.266Z,90.33
2018-01-26T00:53:10.254Z,90.42
2018-01-26T00:54:10.254Z,90.52
2018-01-26T00:55:10.249Z,90.61
2018-01-26T00:56:10.259Z,90.23
2018-01-26T00:57:10.246Z,90.52
2018-01-26T00:58:10.228Z,90.42
2018-01-26T00:59:10.215Z,90.14
2018-01-26T01:00:10.223Z,90.05
2018-01-26T01:01:10.212Z,90.52
2018-01-26T01:02:10.199Z,90.33
2018-01-26T01:03:10.195Z,90.33
2018-01-26T01:04:10.189Z,90.33
2018-01-26T01:05:10.182Z,90.23
2018-01-26T01:06:10.187Z,90.52
2018-01-26T01:07:10.191Z,90.80
2018-01-26T01:08:10.162Z,90.33
2018-01-26T01:09:10.257Z,90.42
2018-01-26T01:10:10.160Z,90.61
2018-01-26T01:11:10.155Z,90.80
2018-01-26T01:12:10.172Z,90.80
2018-01-26T01:13:10.142Z,90.33
2018-01-26T01:14:10.130Z,90.90
2018-01-26T01:15:10.168Z,90.61
2018-01-26T01:16:10.123Z,91.09
2018-01-26T01:17:10.114Z,90.99
2018-01-26T01:18:10.108Z,90.80
2018-01-26T01:19:10.098Z,91.09
2018-01-26T01:20:10.196Z,91.09
2018-01-26T01:21:10.087Z,91.09
2018-01-26T01:22:10.093Z,90.61
2018-01-26T01:23:10.081Z,90.80
2018-01-26T01:24:10.074Z,90.42
2018-01-26T01:25:10.066Z,90.90
2018-01-26T01:26:10.063Z,90.99
2018-01-26T01:27:10.056Z,90.99
2018-01-26T01:28:10.459Z,90.99
2018-01-26T01:29:10.043Z,90.99
2018-01-26T01:30:10.039Z,90.42
2018-01-26T01:31:10.029Z,91.09
2018-01-26T01:32:10.029Z,90.80
2018-01-26T01:33:10.027Z,90.14
2018-01-26T01:34:10.014Z,90.42
2018-01-26T01:35:10.015Z,90.23
2018-01-26T01:36:10.194Z,90.42
2018-01-26T01:37:09.992Z,90.14
2018-01-26T01:38:09.991Z,90.05
2018-01-26T01:39:09.987Z,90.33
2018-01-26T01:40:09.983Z,90.33
2018-01-26T01:41:09.973Z,90.23
2018-01-26T01:42:09.969Z,90.42
2018-01-26T01:43:09.964Z,90.23
2018-01-26T01:44:10.461Z,90.14
2018-01-26T01:45:09.957Z,90.42
2018-01-26T01:46:09.945Z,90.80
2018-01-26T01:47:09.938Z,90.52
2018-01-26T01:48:09.938Z,90.52
2018-01-26T01:49:09.930Z,90.23
2018-01-26T01:50:09.922Z,90.14
2018-01-26T01:51:09.918Z,89.95
2018-01-26T01:52:10.203Z,89.95
2018-01-26T01:53:09.908Z,90.05
2018-01-26T01:54:09.905Z,90.42
2018-01-26T01:55:09.901Z,90.52
2018-01-26T01:56:09.886Z,90.33
2018-01-26T01:57:09.879Z,90.42
2018-01-26T01:58:09.884Z,90.23
2018-01-26T01:59:09.873Z,90.33
2018-01-26T02:00:10.131Z,90.33
2018-01-26T02:01:09.868Z,90.80
2018-01-26T02:02:09.859Z,90.61
2018-01-26T02:03:09.854Z,89.95
2018-01-26T02:04:09.851Z,90.42
2018-01-26T02:05:09.839Z,90.80
2018-01-26T02:06:09.831Z,90.42
2018-01-26T02:07:09.824Z,90.61
2018-01-26T02:08:09.821Z,90.42
2018-01-26T02:09:09.819Z,90.14
2018-01-26T02:10:09.815Z,90.14
2018-01-26T02:11:09.809Z,90.61
2018-01-26T02:12:09.850Z,90.14
2018-01-26T02:13:09.795Z,90.42
2018-01-26T02:14:09.794Z,90.14
2018-01-26T02:15:09.788Z,90.23
2018-01-26T02:16:09.779Z,90.33
2018-01-26T02:17:09.777Z,90.23
2018-01-26T02:18:09.770Z,90.23
2018-01-26T02:19:09.759Z,90.42
2018-01-26T02:20:09.759Z,90.52
2018-01-26T02:21:09.754Z,90.52
2018-01-26T02:22:09.743Z,90.90
2018-01-26T02:23:09.742Z,90.99
2018-01-26T02:24:09.737Z,90.80
2018-01-26T02:25:09.725Z,91.19
2018-01-26T02:26:09.726Z,90.90
2018-01-26T02:27:09.719Z,90.99
2018-01-26T02:28:09.709Z,91.09
2018-01-26T02:29:09.705Z,91.19
2018-01-26T02:30:09.702Z,91.19
2018-01-26T02:31:09.697Z,91.38
2018-01-26T02:32:09.694Z,91.28
2018-01-26T02:33:09.690Z,91.09
2018-01-26T02:34:09.679Z,91.09
2018-01-26T02:35:09.688Z,91.19
2018-01-26T02:36:09.771Z,91.09
2018-01-26T02:37:09.664Z,90.90
2018-01-26T02:38:09.654Z,91.19
2018-01-26T02:39:09.649Z,90.99
2018-01-26T02:40:09.648Z,90.99
2018-01-26T02:41:09.638Z,90.90
2018-01-26T02:42:09.644Z,91.09
2018-01-26T02:43:09.633Z,91.09
2018-01-26T02:44:09.626Z,91.28
2018-01-26T02:45:09.622Z,91.28
2018-01-26T02:46:09.614Z,91.28
2018-01-26T02:47:09.611Z,90.99
2018-01-26T02:48:09.602Z,91.66
2018-01-26T02:49:09.601Z,91.09
2018-01-26T02:50:09.589Z,91.19
2018-01-26T02:51:09.579Z,92.13
2018-01-26T02:52:09.585Z,92.04
2018-01-26T02:53:09.576Z,91.47
2018-01-26T02:54:09.564Z,91.66
2018-01-26T02:55:09.560Z,91.94
2018-01-26T02:56:09.552Z,91.09
2018-01-26T02:57:09.551Z,91.09
2018-01-26T02:58:09.548Z,90.90
2018-01-26T02:59:09.540Z,90.90
2018-01-26T03:00:09.533Z,90.99
2018-01-26T03:01:09.533Z,91.38
2018-01-26T03:02:09.519Z,90.99
2018-01-26T03:03:09.519Z,90.61
2018-01-26T03:04:09.514Z,90.90
2018-01-26T03:05:09.512Z,90.90
2018-01-26T03:06:09.502Z,91.09
2018-01-26T03:07:09.498Z,90.99
2018-01-26T03:08:09.486Z,91.28
2018-01-26T03:09:09.486Z,91.47
2018-01-26T03:10:09.479Z,90.61
2018-01-26T03:11:09.475Z,91.38
2018-01-26T03:12:09.472Z,91.38
2018-01-26T03:13:09.468Z,90.61
2018-01-26T03:14:09.460Z,90.42
2018-01-26T03:15:09.452Z,89.95
2018-01-26T03:16:09.455Z,89.57
2018-01-26T03:17:09.445Z,90.05
2018-01-26T03:18:09.438Z,89.80
2018-01-26T03:19:09.434Z,89.76
2018-01-26T03:20:09.428Z,90.33
2018-01-26T03:21:09.422Z,90.90
2018-01-26T03:22:09.420Z,90.71
2018-01-26T03:23:09.421Z,90.52
2018-01-26T03:24:09.411Z,90.90
2018-01-26T03:25:09.402Z,90.99
2018-01-26T03:26:09.401Z,91.09
2018-01-26T03:27:09.404Z,91.09
2018-01-26T03:28:09.502Z,91.09
2018-01-26T03:29:09.404Z,91.09
2018-01-26T03:30:09.377Z,90.90
2018-01-26T03:31:09.377Z,90.99
2018-01-26T03:32:09.377Z,90.52
2018-01-26T03:33:09.368Z,90.61
2018-01-26T03:34:09.355Z,90.71
2018-01-26T03:35:09.362Z,90.99
2018-01-26T03:36:09.350Z,90.80
2018-01-26T03:37:09.353Z,90.42
2018-01-26T03:38:09.351Z,90.19
2018-01-26T03:39:09.354Z,90.75
2018-01-26T03:40:09.333Z,90.61
2018-01-26T03:41:09.321Z,89.95
2018-01-26T03:42:09.327Z,90.00
2018-01-26T03:43:09.321Z,89.80
2018-01-26T03:44:09.314Z,90.09
2018-01-26T03:45:09.313Z,89.52
2018-01-26T03:46:09.300Z,89.90
2018-01-26T03:47:09.295Z,90.00
2018-01-26T03:48:09.298Z,89.95
2018-01-26T03:49:09.333Z,90.00
2018-01-26T03:50:09.282Z,89.23
2018-01-26T03:51:09.284Z,89.04
2018-01-26T03:52:09.270Z,89.14
2018-01-26T03:53:09.266Z,89.23
2018-01-26T03:54:09.270Z,89.23
2018-01-26T03:55:09.262Z,89.33
2018-01-26T03:56:09.254Z,89.19
2018-01-26T03:57:09.250Z,89.80
2018-01-26T03:58:09.246Z,89.14
2018-01-26T03:59:09.245Z,89.23
2018-01-26T04:00:09.239Z,89.33
2018-01-26T04:01:09.233Z,89.23
2018-01-26T04:02:09.222Z,89.23
2018-01-26T04:03:09.216Z,89.23
2018-01-26T04:04:09.216Z,88.76
2018-01-26T04:05:09.211Z,89.04
2018-01-26T04:06:09.203Z,89.04
2018-01-26T04:07:09.201Z,88.85
2018-01-26T04:08:09.192Z,89.61
2018-01-26T04:09:09.191Z,89.23
2018-01-26T04:10:09.190Z,89.09
2018-01-26T04:11:09.181Z,89.00
2018-01-26T04:12:09.172Z,89.09
2018-01-26T04:13:09.167Z,89.52
2018-01-26T04:14:09.170Z,89.42
2018-01-26T04:15:09.163Z,89.28
2018-01-26T04:16:09.155Z,89.42
2018-01-26T04:17:09.148Z,89.23
2018-01-26T04:18:09.140Z,89.42
2018-01-26T04:19:09.136Z,89.14
2018-01-26T04:20:09.140Z,89.28
2018-01-26T04:21:09.131Z,89.28
2018-01-26T04:22:09.120Z,89.76
2018-01-26T04:23:09.116Z,89.67
2018-01-26T04:24:09.114Z,89.86
2018-01-26T04:25:09.107Z,89.86
2018-01-26T04:26:09.109Z,89.67
2018-01-26T04:27:09.101Z,89.86
2018-01-26T04:28:09.091Z,89.76
2018-01-26T04:29:09.084Z,89.67
2018-01-26T04:30:09.110Z,89.76
2018-01-26T04:31:09.084Z,89.76
2018-01-26T04:32:09.078Z,90.14
2018-01-26T04:33:09.071Z,89.95
2018-01-26T04:34:09.061Z,90.05
2018-01-26T04:35:09.055Z,89.86
2018-01-26T04:36:09.059Z,89.47
2018-01-26T04:37:09.050Z,90.14
2018-01-26T04:38:09.044Z,89.95
2018-01-26T04:39:09.039Z,90.61
2018-01-26T04:40:09.029Z,89.95
2018-01-26T04:41:09.022Z,90.61
2018-01-26T04:42:09.020Z,89.95
2018-01-26T04:43:09.016Z,90.61
2018-01-26T04:44:09.008Z,90.52
2018-01-26T04:45:09.005Z,89.95
2018-01-26T04:46:09.008Z,90.52
2018-01-26T04:47:08.997Z,90.33
2018-01-26T04:48:08.993Z,90.61
2018-01-26T04:49:08.982Z,90.61
2018-01-26T04:50:08.973Z,90.42
2018-01-26T04:51:08.974Z,90.71
2018-01-26T04:52:08.972Z,90.61
2018-01-26T04:53:08.968Z,90.33
2018-01-26T04:54:08.952Z,90.52
2018-01-26T04:55:09.253Z,90.80
2018-01-26T04:56:08.944Z,90.80
2018-01-26T04:57:08.938Z,90.80
2018-01-26T04:58:08.939Z,90.90
2018-01-26T04:59:08.931Z,90.80
2018-01-26T05:00:08.930Z,90.80
2018-01-26T05:01:08.912Z,90.99
2018-01-26T05:02:08.915Z,90.99
2018-01-26T05:03:08.916Z,90.33
2018-01-26T05:04:08.909Z,90.90
2018-01-26T05:05:08.896Z,90.99
2018-01-26T05:06:08.891Z,91.19
2018-01-26T05:07:08.883Z,91.09
2018-01-26T05:08:08.873Z,90.99
2018-01-26T05:09:08.873Z,91.09
2018-01-26T05:10:08.865Z,91.28
2018-01-26T05:11:08.861Z,90.90
2018-01-26T05:12:08.858Z,90.90
2018-01-26T05:13:08.953Z,91.09
2018-01-26T05:14:08.846Z,90.99
2018-01-26T05:15:08.837Z,90.99
2018-01-26T05:16:08.837Z,90.80
2018-01-26T05:17:08.830Z,90.90
2018-01-26T05:18:08.816Z,91.19
2018-01-26T05:19:08.811Z,91.28
2018-01-26T05:20:08.810Z,91.19
2018-01-26T05:21:08.803Z,91.09
2018-01-26T05:22:08.803Z,90.90
2018-01-26T05:23:08.795Z,90.80
2018-01-26T05:24:08.790Z,91.09
2018-01-26T05:25:08.779Z,90.80
2018-01-26T05:26:08.788Z,90.90
2018-01-26T05:27:08.774Z,91.09
2018-01-26T05:28:08.765Z,91.09
2018-01-26T05:29:08.758Z,90.71
2018-01-26T05:30:08.749Z,90.61
2018-01-26T05:31:08.744Z,90.42
2018-01-26T05:32:08.745Z,90.90
2018-01-26T05:33:08.741Z,90.33
2018-01-26T05:34:08.731Z,90.33
2018-01-26T05:35:08.760Z,90.52
2018-01-26T05:36:08.718Z,90.71
2018-01-26T05:37:08.718Z,90.80
2018-01-26T05:38:08.712Z,90.80
2018-01-26T05:39:08.720Z,90.90
2018-01-26T05:40:08.704Z,90.23
2018-01-26T05:41:08.691Z,90.52
2018-01-26T05:42:08.690Z,90.61
2018-01-26T05:43:08.688Z,89.76
2018-01-26T05:44:08.685Z,89.76
2018-01-26T05:45:08.682Z,89.95
2018-01-26T05:46:08.669Z,89.95
2018-01-26T05:47:08.671Z,90.00
2018-01-26T05:48:08.661Z,89.76
2018-01-26T05:49:08.656Z,89.95
2018-01-26T05:50:08.652Z,90.28
2018-01-26T05:51:08.642Z,90.66
2018-01-26T05:52:08.641Z,89.71
2018-01-26T05:53:08.640Z,89.14
2018-01-26T05:54:08.636Z,89.42
2018-01-26T05:55:08.630Z,89.33
2018-01-26T05:56:08.620Z,89.42
2018-01-26T05:57:08.616Z,89.28
2018-01-26T05:58:08.615Z,89.52
2018-01-26T05:59:08.612Z,89.33
2018-01-26T06:00:08.602Z,89.04
2018-01-26T06:01:08.600Z,89.42
2018-01-26T06:02:08.588Z,89.19
2018-01-26T06:03:08.583Z,89.90
2018-01-26T06:04:08.584Z,89.71
2018-01-26T06:05:08.582Z,89.61
2018-01-26T06:06:08.568Z,89.90
2018-01-26T06:07:08.667Z,89.86
2018-01-26T06:08:08.568Z,89.67
2018-01-26T06:09:08.569Z,89.47
2018-01-26T06:10:08.551Z,89.95
2018-01-26T06:11:08.545Z,90.09
2018-01-26T06:12:08.538Z,89.67
2018-01-26T06:13:08.532Z,89.57
2018-01-26T06:14:08.534Z,89.04
2018-01-26T06:15:08.526Z,89.71
2018-01-26T06:16:08.526Z,89.61
2018-01-26T06:17:08.522Z,89.09
2018-01-26T06:18:08.519Z,89.04
2018-01-26T06:19:08.517Z,90.19
2018-01-26T06:20:08.501Z,89.80
2018-01-26T06:21:08.495Z,89.76
2018-01-26T06:22:08.487Z,89.67
2018-01-26T06:23:08.486Z,89.86
2018-01-26T06:24:08.483Z,90.05
2018-01-26T06:25:08.469Z,89.76
2018-01-26T06:26:08.467Z,89.71
2018-01-26T06:27:08.462Z,89.67
2018-01-26T06:28:08.453Z,89.86
2018-01-26T06:29:08.451Z,89.67
2018-01-26T06:30:08.452Z,90.05
2018-01-26T06:31:08.445Z,89.95
2018-01-26T06:32:08.440Z,90.61
2018-01-26T06:33:08.433Z,90.23
2018-01-26T06:34:08.426Z,90.23
2018-01-26T06:35:08.422Z,90.52
2018-01-26T06:36:08.415Z,90.52
2018-01-26T06:37:08.409Z,90.80
2018-01-26T06:38:08.406Z,90.61
2018-01-26T06:39:08.397Z,89.76
2018-01-26T06:40:08.394Z,89.71
2018-01-26T06:41:08.386Z,89.80
2018-01-26T06:42:08.386Z,89.86
2018-01-26T06:43:08.380Z,89.86
2018-01-26T06:44:08.370Z,90.00
2018-01-26T06:45:08.367Z,89.57
2018-01-26T06:46:08.399Z,90.14
2018-01-26T06:47:08.363Z,89.86
2018-01-26T06:48:08.357Z,89.95
2018-01-26T06:49:08.346Z,89.57
2018-01-26T06:50:08.337Z,90.00
2018-01-26T06:51:08.332Z,89.90
2018-01-26T06:52:08.334Z,89.67
2018-01-26T06:53:08.331Z,89.90
2018-01-26T06:54:08.317Z,89.76
2018-01-26T06:55:08.312Z,89.47
2018-01-26T06:56:08.305Z,89.86
2018-01-26T06:57:08.305Z,89.76
2018-01-26T06:58:08.299Z,89.86
2018-01-26T06:59:08.294Z,89.23
2018-01-26T07:00:08.285Z,89.33
2018-01-26T07:01:08.284Z,89.33
2018-01-26T07:02:08.278Z,89.42
2018-01-26T07:03:08.273Z,89.14
2018-01-26T07:04:08.273Z,89.33
2018-01-26T07:05:08.265Z,89.23
2018-01-26T07:06:08.254Z,89.42
2018-01-26T07:07:08.250Z,89.42
2018-01-26T07:08:08.250Z,89.04
2018-01-26T07:09:08.241Z,88.95
2018-01-26T07:10:08.232Z,89.14
2018-01-26T07:11:08.232Z,89.04
2018-01-26T07:12:08.223Z,89.23
2018-01-26T07:13:08.218Z,89.33
2018-01-26T07:14:08.216Z,89.14
2018-01-26T07:15:08.213Z,89.19
2018-01-26T07:16:08.207Z,89.57
2018-01-26T07:17:08.202Z,89.28
2018-01-26T07:18:08.192Z,90.05
2018-01-26T07:19:08.339Z,89.47
2018-01-26T07:20:08.183Z,90.61
2018-01-26T07:21:08.172Z,90.33
2018-01-26T07:22:08.171Z,89.95
2018-01-26T07:23:08.172Z,90.52
2018-01-26T07:24:08.163Z,90.33
2018-01-26T07:25:08.154Z,90.90
2018-01-26T07:26:08.152Z,90.14
2018-01-26T07:27:08.146Z,90.52
2018-01-26T07:28:08.138Z,90.80
2018-01-26T07:29:08.132Z,90.14
2018-01-26T07:30:08.123Z,89.76
2018-01-26T07:31:08.117Z,89.95
2018-01-26T07:32:08.116Z,90.80
2018-01-26T07:33:08.112Z,90.33
2018-01-26T07:34:08.103Z,90.42
2018-01-26T07:35:08.100Z,90.61
2018-01-26T07:36:08.093Z,90.52
2018-01-26T07:37:08.084Z,90.61
2018-01-26T07:38:08.085Z,90.99
2018-01-26T07:39:08.076Z,91.19
2018-01-26T07:40:08.067Z,91.38
2018-01-26T07:41:08.057Z,90.99
2018-01-26T07:42:08.059Z,91.28
2018-01-26T07:43:08.050Z,91.28
2018-01-26T07:44:08.049Z,90.99
2018-01-26T07:45:08.040Z,91.19
2018-01-26T07:46:08.028Z,91.19
2018-01-26T07:47:08.022Z,90.99
2018-01-26T07:48:08.021Z,90.61
2018-01-26T07:49:08.014Z,90.52
2018-01-26T07:50:08.005Z,90.23
2018-01-26T07:51:07.999Z,90.42
2018-01-26T07:52:07.997Z,90.33
2018-01-26T07:53:07.985Z,90.80
2018-01-26T07:54:07.983Z,90.23
2018-01-26T07:55:07.980Z,89.95
2018-01-26T07:56:07.970Z,90.80
2018-01-26T07:57:07.964Z,90.61
2018-01-26T07:58:07.962Z,90.52
2018-01-26T07:59:07.956Z,90.23
2018-01-26T08:00:07.956Z,90.52
2018-01-26T08:01:07.946Z,90.52
2018-01-26T08:02:07.932Z,90.61
2018-01-26T08:03:07.930Z,90.33
2018-01-26T08:04:07.932Z,90.33
2018-01-26T08:05:07.918Z,90.80
2018-01-26T08:06:07.909Z,91.09
2018-01-26T08:07:07.902Z,90.23
2018-01-26T08:08:07.902Z,90.52
2018-01-26T08:09:07.897Z,90.23
2018-01-26T08:10:07.896Z,90.05
2018-01-26T08:11:07.886Z,90.61
2018-01-26T08:12:07.875Z,90.52
2018-01-26T08:13:07.874Z,90.33
2018-01-26T08:14:07.866Z,90.42
2018-01-26T08:15:07.866Z,90.42
2018-01-26T08:16:07.857Z,90.42
2018-01-26T08:17:07.851Z,89.57
2018-01-26T08:18:07.843Z,90.52
2018-01-26T08:19:07.841Z,90.33
2018-01-26T08:20:07.833Z,90.99
2018-01-26T08:21:07.826Z,90.80
2018-01-26T08:22:07.817Z,90.71
2018-01-26T08:23:07.811Z,90.71
2018-01-26T08:24:07.811Z,90.90
2018-01-26T08:25:07.805Z,90.52
2018-01-26T08:26:07.801Z,90.33
2018-01-26T08:27:07.794Z,90.23
2018-01-26T08:28:07.782Z,90.61
2018-01-26T08:29:07.781Z,89.95
2018-01-26T08:30:07.779Z,89.95
2018-01-26T08:31:07.769Z,89.47
2018-01-26T08:32:07.765Z,89.76
2018-01-26T08:33:07.758Z,89.76
2018-01-26T08:34:07.752Z,90.14
2018-01-26T08:35:07.747Z,89.19
2018-01-26T08:36:07.753Z,89.38
2018-01-26T08:37:07.738Z,89.76
2018-01-26T08:38:07.733Z,89.95
2018-01-26T08:39:07.734Z,90.14
2018-01-26T08:40:07.717Z,89.67
2018-01-26T08:41:07.705Z,90.05
2018-01-26T08:42:07.710Z,89.95
2018-01-26T08:43:07.702Z,89.95
2018-01-26T08:44:07.691Z,90.14
2018-01-26T08:45:07.690Z,90.33
2018-01-26T08:46:07.686Z,90.52
2018-01-26T08:47:07.687Z,90.05
2018-01-26T08:48:07.688Z,90.05
2018-01-26T08:49:07.670Z,89.67
2018-01-26T08:50:07.653Z,89.86
2018-01-26T08:51:07.649Z,89.19
2018-01-26T08:52:07.646Z,88.81
2018-01-26T08:53:07.645Z,88.81
2018-01-26T08:54:07.630Z,89.00
2018-01-26T08:55:07.625Z,88.81
2018-01-26T08:56:07.625Z,88.81
2018-01-26T08:57:07.616Z,89.09
2018-01-26T08:58:07.615Z,89.09
2018-01-26T08:59:07.614Z,88.81
2018-01-26T09:00:07.597Z,89.61
2018-01-26T09:01:07.590Z,89.14
2018-01-26T09:02:07.589Z,88.67
2018-01-26T09:03:07.590Z,88.85
2018-01-26T09:04:07.582Z,88.76
2018-01-26T09:05:07.579Z,88.85
2018-01-26T09:06:07.586Z,88.76
2018-01-26T09:07:07.563Z,88.38
2018-01-26T09:08:07.560Z,88.76
2018-01-26T09:09:07.555Z,88.67
2018-01-26T09:10:07.546Z,88.57
2018-01-26T09:11:07.540Z,88.00
2018-01-26T09:12:07.538Z,87.81
2018-01-26T09:13:07.528Z,88.47
2018-01-26T09:14:07.530Z,88.67
2018-01-26T09:15:07.525Z,88.67
2018-01-26T09:16:07.516Z,88.19
2018-01-26T09:17:07.513Z,88.67
2018-01-26T09:18:07.514Z,88.67
2018-01-26T09:19:07.506Z,88.09
2018-01-26T09:20:07.498Z,88.09
2018-01-26T09:21:07.492Z,88.00
2018-01-26T09:22:07.490Z,87.34
2018-01-26T09:23:07.480Z,87.62
2018-01-26T09:24:07.491Z,87.34
2018-01-26T09:25:07.470Z,86.95
2018-01-26T09:26:07.470Z,87.81
2018-01-26T09:27:07.470Z,87.43
2018-01-26T09:28:07.462Z,87.43
2018-01-26T09:29:07.458Z,87.43
2018-01-26T09:30:07.451Z,87.24
2018-01-26T09:31:07.543Z,87.43
2018-01-26T09:32:07.442Z,87.52
2018-01-26T09:33:07.439Z,87.34
2018-01-26T09:34:07.443Z,87.52
2018-01-26T09:35:07.426Z,87.52
2018-01-26T09:36:07.420Z,88.00
2018-01-26T09:37:07.414Z,88.00
2018-01-26T09:38:07.415Z,88.00
2018-01-26T09:39:07.409Z,87.43
2018-01-26T09:40:07.400Z,87.14
2018-01-26T09:41:07.395Z,87.24
2018-01-26T09:42:07.393Z,87.05
2018-01-26T09:43:07.390Z,87.43
2018-01-26T09:44:07.383Z,87.34
2018-01-26T09:45:07.376Z,87.34
2018-01-26T09:46:07.366Z,87.43
2018-01-26T09:47:07.363Z,87.24
2018-01-26T09:48:07.367Z,87.24
2018-01-26T09:49:07.359Z,87.43
2018-01-26T09:50:07.351Z,87.62
2018-01-26T09:51:07.349Z,87.34
2018-01-26T09:52:07.346Z,87.34
2018-01-26T09:53:07.335Z,87.43
2018-01-26T09:54:07.333Z,86.67
2018-01-26T09:55:07.332Z,87.24
2018-01-26T09:56:07.358Z,87.24
2018-01-26T09:57:07.311Z,87.52
2018-01-26T09:58:07.314Z,87.24
2018-01-26T09:59:07.306Z,86.99
2018-01-26T10:00:07.316Z,86.95
2018-01-26T10:01:07.300Z,86.71
2018-01-26T10:02:07.287Z,86.52
2018-01-26T10:03:07.283Z,85.72
2018-01-26T10:04:07.285Z,86.57
2018-01-26T10:05:07.281Z,86.38
2018-01-26T10:06:07.311Z,86.57
2018-01-26T10:07:07.262Z,86.76
2018-01-26T10:08:07.265Z,87.05
2018-01-26T10:09:07.254Z,87.05
2018-01-26T10:10:07.258Z,87.05
2018-01-26T10:11:07.251Z,87.05
2018-01-26T10:12:07.244Z,87.34
2018-01-26T10:13:07.234Z,87.14
2018-01-26T10:14:07.237Z,87.14
2018-01-26T10:15:07.229Z,87.43
2018-01-26T10:16:07.227Z,86.19
2018-01-26T10:17:07.223Z,86.19
2018-01-26T10:18:07.209Z,87.57
2018-01-26T10:19:07.211Z,86.47
2018-01-26T10:20:07.209Z,85.62
2018-01-26T10:21:07.202Z,85.72
2018-01-26T10:22:07.193Z,85.72
2018-01-26T10:23:07.189Z,86.57
2018-01-26T10:24:07.185Z,85.62
2018-01-26T10:25:07.184Z,85.72
2018-01-26T10:26:07.481Z,86.47
2018-01-26T10:27:07.177Z,86.57
2018-01-26T10:28:07.171Z,86.19
2018-01-26T10:29:07.159Z,86.19
2018-01-26T10:30:07.163Z,86.47
2018-01-26T10:31:07.154Z,85.81
2018-01-26T10:32:07.148Z,86.10
2018-01-26T10:33:07.147Z,85.91
2018-01-26T10:34:07.137Z,85.72
2018-01-26T10:35:07.136Z,85.72
2018-01-26T10:36:07.134Z,85.72
2018-01-26T10:37:07.124Z,85.81
2018-01-26T10:38:07.135Z,85.81
2018-01-26T10:39:07.112Z,86.05
2018-01-26T10:40:07.103Z,85.86
2018-01-26T10:41:07.099Z,85.28
2018-01-26T10:42:07.097Z,85.28
2018-01-26T10:43:07.098Z,85.19
2018-01-26T10:44:07.087Z,85.47
2018-01-26T10:45:07.086Z,85.34
2018-01-26T10:46:07.077Z,85.43
2018-01-26T10:47:07.073Z,85.24
2018-01-26T10:48:07.070Z,85.10
2018-01-26T10:49:07.065Z,85.38
2018-01-26T10:50:07.055Z,85.19
2018-01-26T10:51:07.051Z,85.28
2018-01-26T10:52:07.051Z,85.10
2018-01-26T10:53:07.047Z,85.19
2018-01-26T10:54:07.034Z,84.72
2018-01-26T10:55:07.038Z,84.52
2018-01-26T10:56:07.027Z,84.91
2018-01-26T10:57:07.021Z,84.81
2018-01-26T10:58:07.023Z,84.67
2018-01-26T10:59:07.014Z,84.43
2018-01-26T11:00:07.008Z,84.43
2018-01-26T11:01:06.999Z,85.38
2018-01-26T11:02:07.001Z,85.19
2018-01-26T11:03:06.996Z,84.62
2018-01-26T11:04:06.992Z,84.43
2018-01-26T11:05:06.981Z,84.81
2018-01-26T11:06:06.972Z,83.95
2018-01-26T11:07:06.970Z,84.24
2018-01-26T11:08:06.972Z,85.28
2018-01-26T11:09:06.963Z,85.10
2018-01-26T11:10:06.957Z,84.52
2018-01-26T11:11:06.951Z,84.72
2018-01-26T11:12:06.946Z,84.52
2018-01-26T11:13:06.943Z,84.72
2018-01-26T11:14:06.979Z,84.14
2018-01-26T11:15:06.935Z,83.29
2018-01-26T11:16:06.926Z,83.76
2018-01-26T11:17:06.931Z,83.29
2018-01-26T11:18:06.927Z,83.58
2018-01-26T11:19:06.930Z,83.76
2018-01-26T11:20:06.917Z,84.14
2018-01-26T11:21:06.917Z,83.67
2018-01-26T11:22:06.905Z,83.58
2018-01-26T11:23:06.905Z,83.58
2018-01-26T11:24:06.909Z,83.48
2018-01-26T11:25:06.912Z,83.67
2018-01-26T11:26:06.883Z,83.10
2018-01-26T11:27:06.887Z,84.05
2018-01-26T11:28:06.880Z,84.14
2018-01-26T11:29:06.871Z,84.43
2018-01-26T11:30:06.874Z,84.05
2018-01-26T11:31:06.872Z,83.67
2018-01-26T11:32:06.864Z,84.05
2018-01-26T11:33:06.861Z,84.05
2018-01-26T11:34:06.858Z,83.95
2018-01-26T11:35:06.862Z,83.10
2018-01-26T11:36:06.862Z,84.14
2018-01-26T11:37:06.837Z,84.24
2018-01-26T11:38:06.835Z,83.19
2018-01-26T11:39:06.829Z,84.05
2018-01-26T11:40:06.824Z,84.33
2018-01-26T11:41:06.822Z,84.52
2018-01-26T11:42:06.819Z,84.43
2018-01-26T11:43:06.813Z,84.14
2018-01-26T11:44:06.807Z,84.52
2018-01-26T11:45:06.801Z,85.38
2018-01-26T11:46:06.794Z,85.19
2018-01-26T11:47:06.789Z,84.72
2018-01-26T11:48:06.797Z,84.62
2018-01-26T11:49:06.782Z,84.43
2018-01-26T11:50:06.774Z,85.00
2018-01-26T11:51:06.769Z,85.19
2018-01-26T11:52:06.767Z,84.81
2018-01-26T11:53:06.760Z,84.91
2018-01-26T11:54:06.768Z,84.72
2018-01-26T11:55:07.059Z,84.81
2018-01-26T11:56:06.744Z,85.28
2018-01-26T11:57:06.739Z,85.10
2018-01-26T11:58:06.746Z,85.00
2018-01-26T11:59:06.736Z,85.28
2018-01-26T12:00:06.731Z,85.10
2018-01-26T12:01:06.731Z,85.95
2018-01-26T12:02:06.721Z,85.28
2018-01-26T12:03:06.716Z,85.38
2018-01-26T12:04:06.716Z,85.38
2018-01-26T12:05:06.707Z,85.10
2018-01-26T12:06:06.699Z,84.81
2018-01-26T12:07:06.695Z,83.86
2018-01-26T12:08:06.692Z,83.19
2018-01-26T12:09:06.689Z,84.05
2018-01-26T12:10:06.688Z,83.86
2018-01-26T12:11:06.684Z,83.58
2018-01-26T12:12:06.976Z,84.14
2018-01-26T12:13:06.668Z,84.33
2018-01-26T12:14:06.672Z,84.62
2018-01-26T12:15:06.666Z,84.43
2018-01-26T12:16:06.655Z,84.24
2018-01-26T12:17:06.653Z,84.33
2018-01-26T12:18:06.642Z,84.72
2018-01-26T12:19:06.646Z,84.52
2018-01-26T12:20:06.635Z,84.24
2018-01-26T12:21:06.630Z,84.43
2018-01-26T12:22:06.622Z,84.05
2018-01-26T12:23:06.620Z,84.33
2018-01-26T12:24:06.663Z,83.86
2018-01-26T12:25:06.610Z,83.58
2018-01-26T12:26:06.612Z,83.86
2018-01-26T12:27:06.605Z,83.67
2018-01-26T12:28:06.593Z,83.29
2018-01-26T12:29:06.587Z,83.00
2018-01-26T12:30:06.586Z,83.39
2018-01-26T12:31:06.588Z,83.67
2018-01-26T12:32:06.580Z,84.05
2018-01-26T12:33:06.577Z,83.86
2018-01-26T12:34:06.573Z,83.58
2018-01-26T12:35:06.561Z,84.24
2018-01-26T12:36:06.558Z,83.86
2018-01-26T12:37:06.552Z,84.43
2018-01-26T12:38:06.543Z,83.76
2018-01-26T12:39:06.540Z,84.05
2018-01-26T12:40:06.540Z,84.05
2018-01-26T12:41:06.531Z,83.76
2018-01-26T12:42:06.531Z,82.81
2018-01-26T12:43:06.529Z,83.48
2018-01-26T12:44:06.519Z,82.62
2018-01-26T12:45:06.517Z,82.91
2018-01-26T12:46:06.513Z,82.91
2018-01-26T12:47:06.512Z,83.10
2018-01-26T12:48:06.503Z,83.29
2018-01-26T12:49:06.502Z,82.81
2018-01-26T12:50:06.494Z,82.81
2018-01-26T12:51:06.486Z,82.91
2018-01-26T12:52:06.486Z,82.81